ADDS METAR Data INFO

IDs: Format: Raw Decoded Include TAF

Data at: 1219 UTC 29 Jan 2015

Region: TOP
KATL 291152Z 17004KT 10SM FEW200 SCT250 03/M02 A3027 RMK AO2 SLP257 T00281022 10056 20022 55005

KBOS 291154Z 00000KT 10SM FEW250 M10/M18 A3030 RMK AO2 SLP260 T11001183 11089 21106 51006 $

KBWI 291154Z 00000KT 10SM FEW250 M08/M12 A3033 RMK AO2 SLP274 T10781122 11050 21083 53002

KCLE 291151Z 17016KT 10SM OVC070 00/M09 A2994 RMK AO2 SLP148 4/001 T00001094 10000 21039 56046

KCLT 291152Z 15003KT 10SM BKN250 M02/M07 A3031 RMK AO2 SLP269 T10171067 10011 21039 50002

KCVG 291152Z 18015KT 10SM OVC065 03/M02 A2988 RMK AO2 RAE30 SLP123 P0002 60009 70009 T00331017 10033 20000 56039

KDCA 291152Z 00000KT 10SM SCT250 M02/M11 A3035 RMK AO2 SLP275 T10221106 11017 21033 53001

KDEN 291153Z 30006KT 10SM OVC050 03/M02 A3043 RMK AO2 SLP286 T00281017 10033 20017 53009

KDFW 291153Z 32009KT 10SM SCT300 14/04 A3010 RMK AO2 SLP188 T01390044 10183 20106 51019

KDTW 291153Z 13008KT 8SM -FZRA BKN040 OVC065 M02/M07 A2986 RMK AO2 FZRAB51PLE17SNE51 SLP118 P0000 60001 70001 T10171067 11017 21039 56042

KEWR 291151Z 30004KT 10SM FEW250 M08/M17 A3034 RMK AO2 SLP272 4/006 T10831167 11050 21111 53005

KFLL 291153Z 33007KT 10SM BKN045 BKN050 12/10 A3022 RMK AO2 SLP232 T01220100 10128 20111 53012

KIAD 291152Z 00000KT 10SM FEW170 SCT250 M09/M12 A3031 RMK AO2 SLP268 T10941117 11056 21100 56008 $

KIAH 291153Z 00000KT 3SM BR OVC011 14/14 A3017 RMK AO2 SFC VIS 4 SLP215 T01440139 10144 20094 53003

KJFK 291151Z 01005KT 10SM FEW250 M07/M16 A3033 RMK AO2 SLP269 4/009 T10721161 11050 21078 53004 $

KLAS 291156Z 21005KT 10SM BKN150 OVC220 12/07 A3014 RMK AO2 SLP198 T01220067 10144 20122 53000

KLAX 291153Z 02005KT 10SM FEW040 BKN170 18/07 A3003 RMK AO2 SLP166 T01830067 10194 20161 58007

KLGA 291151Z 01006KT 10SM CLR M06/M16 A3032 RMK AO2 SLP267 4/006 T10611156 11044 21061 53005

KMCO 291153Z 36003KT 10SM FEW040 FEW250 07/05 A3028 RMK AO2 SLP254 T00720050 10078 20067 53005

KMDW 291210Z 24005KT 10SM OVC029 02/M02 A2971 RMK AO2 T00221017

KMEM 291154Z 21014G22KT 10SM FEW130 OVC200 13/05 A3002 RMK AO2 PK WND 22026/1112 SLP164 60000 T01330050 10156 20117 55002 $

KMIA 291153Z 33003KT 10SM BKN050 12/09 A3023 RMK AO2 SLP235 T01220094 10128 20117 53013

KMSP 291153Z 31018G23KT 10SM OVC019 01/M03 A3001 RMK AO2 SLP170 I6002 T00111028 10011 21011 53031

KORD 291214Z 28005KT 10SM OVC024 02/M02 A2972 RMK AO2 T00171022

KPDX 291153Z 00000KT 10SM BKN110 07/04 A3033 RMK AO2 SLP269 70001 T00720044 10089 20067 58002

KPHL 291154Z 34003KT 10SM FEW220 FEW280 M05/M16 A3035 RMK AO2 SLP275 T10501156 11028 21061 53008 $

KPHX 291151Z 09004KT 10SM BKN160 BKN180 15/11 A3003 RMK AO2 SLP159 T01500106 10183 20150 58007

KPIT 291151Z 14005KT 9SM BKN075 OVC120 M06/M11 A3006 RMK AO2 SLP206 T10561111 11056 21089 56034

KSAN 291151Z 26004KT 10SM BKN140 BKN170 17/09 A3001 RMK AO2 SLP162 T01670089 10189 20167 56015

KSEA 291153Z 36006KT 10SM FEW100 BKN170 06/04 A3035 RMK AO2 SLP287 T00560044 10072 20044 58003

KSFO 291156Z 00000KT 10SM FEW200 11/09 A3014 RMK AO2 SLP205 T01060094 10133 20100 58008

KSLC 291153Z 13005KT 10SM CLR M01/M02 A3037 RMK AO2 SLP287 T10061017 10022 21006 58005

KSTL 291151Z 30016G29KT 9SM BKN025 BKN035 08/02 A2989 RMK AO2 PK WND 31032/1128 PRESRR SLP125 T00780022 10122 20078 53041

KTPA 291153Z 02006KT 10SM BKN300 07/02 A3031 RMK AO2 SLP262 T00720022 10083 20072 53008


Page loaded:  12:19 UTC  |   04:19 AM Pacific  |   05:19 AM Mountain  |   06:19 AM Central  |   07:19 AM Eastern

 

ADVISORIES

FORECASTS

FORECASTS

OBSERVATIONS

USER TOOLS

ABOUT US